sensor_id;sensor_type;location;lat;lon;timestamp;P1;durP1;ratioP1;P2;durP2;ratioP2
2049;SDS011;8478;49.208;8.806;2023-05-08T00:00:23;6.90;;;6.50;;
2049;SDS011;8478;49.208;8.806;2023-05-08T00:02:49;6.53;;;6.13;;
2049;SDS011;8478;49.208;8.806;2023-05-08T00:05:14;6.47;;;6.03;;
2049;SDS011;8478;49.208;8.806;2023-05-08T00:07:40;6.33;;;5.93;;
2049;SDS011;8478;49.208;8.806;2023-05-08T00:10:06;6.23;;;5.80;;
2049;SDS011;8478;49.208;8.806;2023-05-08T00:12:33;6.93;;;6.40;;
2049;SDS011;8478;49.208;8.806;2023-05-08T00:14:59;6.80;;;6.30;;
2049;SDS011;8478;49.208;8.806;2023-05-08T00:17:24;6.60;;;6.10;;
2049;SDS011;8478;49.208;8.806;2023-05-08T00:19:50;7.33;;;6.80;;
2049;SDS011;8478;49.208;8.806;2023-05-08T00:22:17;6.90;;;6.50;;
2049;SDS011;8478;49.208;8.806;2023-05-08T00:24:43;6.80;;;6.30;;
2049;SDS011;8478;49.208;8.806;2023-05-08T00:27:08;6.30;;;5.90;;
2049;SDS011;8478;49.208;8.806;2023-05-08T00:29:34;7.00;;;6.40;;
2049;SDS011;8478;49.208;8.806;2023-05-08T00:31:59;6.77;;;6.33;;
2049;SDS011;8478;49.208;8.806;2023-05-08T00:34:25;6.37;;;5.93;;
2049;SDS011;8478;49.208;8.806;2023-05-08T00:36:51;6.60;;;6.20;;
2049;SDS011;8478;49.208;8.806;2023-05-08T00:39:17;6.67;;;6.27;;
2049;SDS011;8478;49.208;8.806;2023-05-08T00:41:43;7.17;;;6.67;;
2049;SDS011;8478;49.208;8.806;2023-05-08T00:44:09;6.90;;;6.50;;
2049;SDS011;8478;49.208;8.806;2023-05-08T00:46:34;7.27;;;6.70;;
2049;SDS011;8478;49.208;8.806;2023-05-08T00:49:01;7.00;;;6.60;;
2049;SDS011;8478;49.208;8.806;2023-05-08T00:51:29;6.87;;;6.47;;
2049;SDS011;8478;49.208;8.806;2023-05-08T00:53:56;7.63;;;7.13;;
2049;SDS011;8478;49.208;8.806;2023-05-08T00:56:23;7.80;;;7.30;;
2049;SDS011;8478;49.208;8.806;2023-05-08T00:58:49;6.70;;;6.30;;
2049;SDS011;8478;49.208;8.806;2023-05-08T01:01:15;7.10;;;6.60;;
2049;SDS011;8478;49.208;8.806;2023-05-08T01:03:42;7.20;;;6.70;;
2049;SDS011;8478;49.208;8.806;2023-05-08T01:06:08;7.40;;;6.80;;
2049;SDS011;8478;49.208;8.806;2023-05-08T01:08:34;7.33;;;6.87;;
2049;SDS011;8478;49.208;8.806;2023-05-08T01:14:15;6.87;;;6.27;;
2049;SDS011;8478;49.208;8.806;2023-05-08T01:16:48;7.57;;;7.07;;
2049;SDS011;8478;49.208;8.806;2023-05-08T01:20:02;7.47;;;6.67;;
2049;SDS011;8478;49.208;8.806;2023-05-08T01:27:54;6.60;;;6.20;;
2049;SDS011;8478;49.208;8.806;2023-05-08T01:32:57;7.20;;;6.60;;
2049;SDS011;8478;49.208;8.806;2023-05-08T01:35:43;9.60;;;7.80;;
2049;SDS011;8478;49.208;8.806;2023-05-08T01:38:26;7.37;;;6.67;;
2049;SDS011;8478;49.208;8.806;2023-05-08T01:41:07;7.40;;;6.90;;
2049;SDS011;8478;49.208;8.806;2023-05-08T01:46:05;7.40;;;6.80;;
2049;SDS011;8478;49.208;8.806;2023-05-08T01:48:42;7.27;;;6.77;;
2049;SDS011;8478;49.208;8.806;2023-05-08T01:51:27;6.57;;;6.00;;
2049;SDS011;8478;49.208;8.806;2023-05-08T01:54:01;7.10;;;6.60;;
2049;SDS011;8478;49.208;8.806;2023-05-08T01:56:30;7.57;;;6.97;;
2049;SDS011;8478;49.208;8.806;2023-05-08T01:58:57;7.63;;;7.13;;
2049;SDS011;8478;49.208;8.806;2023-05-08T02:01:25;7.17;;;6.30;;
2049;SDS011;8478;49.208;8.806;2023-05-08T02:03:53;7.30;;;6.80;;
2049;SDS011;8478;49.208;8.806;2023-05-08T02:06:21;7.60;;;7.10;;
2049;SDS011;8478;49.208;8.806;2023-05-08T02:08:49;7.07;;;6.57;;
2049;SDS011;8478;49.208;8.806;2023-05-08T02:11:17;7.50;;;7.10;;
2049;SDS011;8478;49.208;8.806;2023-05-08T02:13:43;6.83;;;6.43;;
2049;SDS011;8478;49.208;8.806;2023-05-08T02:16:12;6.90;;;6.40;;
2049;SDS011;8478;49.208;8.806;2023-05-08T02:18:39;8.47;;;7.90;;
2049;SDS011;8478;49.208;8.806;2023-05-08T02:21:10;6.87;;;6.43;;
2049;SDS011;8478;49.208;8.806;2023-05-08T02:23:38;7.50;;;7.07;;
2049;SDS011;8478;49.208;8.806;2023-05-08T02:26:05;6.87;;;6.47;;
2049;SDS011;8478;49.208;8.806;2023-05-08T02:28:32;7.50;;;7.00;;
2049;SDS011;8478;49.208;8.806;2023-05-08T02:30:58;6.97;;;6.57;;
2049;SDS011;8478;49.208;8.806;2023-05-08T02:33:25;7.20;;;6.70;;
2049;SDS011;8478;49.208;8.806;2023-05-08T02:35:52;6.97;;;6.47;;
2049;SDS011;8478;49.208;8.806;2023-05-08T02:38:20;6.60;;;6.20;;
2049;SDS011;8478;49.208;8.806;2023-05-08T02:40:48;7.03;;;6.63;;
2049;SDS011;8478;49.208;8.806;2023-05-08T02:43:18;6.80;;;6.40;;
2049;SDS011;8478;49.208;8.806;2023-05-08T02:45:45;7.33;;;6.83;;
2049;SDS011;8478;49.208;8.806;2023-05-08T02:48:18;7.77;;;7.27;;
2049;SDS011;8478;49.208;8.806;2023-05-08T02:51:09;6.77;;;6.40;;
2049;SDS011;8478;49.208;8.806;2023-05-08T02:54:00;7.00;;;6.50;;
2049;SDS011;8478;49.208;8.806;2023-05-08T03:02:14;7.17;;;6.73;;
2049;SDS011;8478;49.208;8.806;2023-05-08T03:04:52;5.90;;;5.60;;
2049;SDS011;8478;49.208;8.806;2023-05-08T03:07:24;7.20;;;6.80;;
2049;SDS011;8478;49.208;8.806;2023-05-08T03:09:56;6.33;;;5.93;;
2049;SDS011;8478;49.208;8.806;2023-05-08T03:12:27;6.70;;;6.30;;
2049;SDS011;8478;49.208;8.806;2023-05-08T03:15:01;6.97;;;6.63;;
2049;SDS011;8478;49.208;8.806;2023-05-08T03:17:31;6.63;;;6.13;;
2049;SDS011;8478;49.208;8.806;2023-05-08T03:20:03;6.23;;;5.93;;
2049;SDS011;8478;49.208;8.806;2023-05-08T03:22:31;7.40;;;6.93;;
2049;SDS011;8478;49.208;8.806;2023-05-08T03:25:01;6.60;;;6.20;;
2049;SDS011;8478;49.208;8.806;2023-05-08T03:27:30;6.80;;;6.40;;
2049;SDS011;8478;49.208;8.806;2023-05-08T03:29:57;7.50;;;7.00;;
2049;SDS011;8478;49.208;8.806;2023-05-08T03:32:26;6.83;;;6.43;;
2049;SDS011;8478;49.208;8.806;2023-05-08T03:34:53;7.37;;;6.87;;
2049;SDS011;8478;49.208;8.806;2023-05-08T03:37:20;6.40;;;6.00;;
2049;SDS011;8478;49.208;8.806;2023-05-08T03:39:46;7.27;;;6.87;;
2049;SDS011;8478;49.208;8.806;2023-05-08T03:42:11;7.10;;;6.70;;
2049;SDS011;8478;49.208;8.806;2023-05-08T03:44:46;6.93;;;6.53;;
2049;SDS011;8478;49.208;8.806;2023-05-08T03:47:19;7.40;;;6.90;;
2049;SDS011;8478;49.208;8.806;2023-05-08T03:49:46;8.03;;;7.53;;
2049;SDS011;8478;49.208;8.806;2023-05-08T03:52:13;7.43;;;6.97;;
2049;SDS011;8478;49.208;8.806;2023-05-08T03:54:39;7.27;;;6.77;;
2049;SDS011;8478;49.208;8.806;2023-05-08T03:57:05;6.93;;;6.53;;
2049;SDS011;8478;49.208;8.806;2023-05-08T03:59:37;7.33;;;6.93;;
2049;SDS011;8478;49.208;8.806;2023-05-08T04:05:20;6.93;;;6.53;;
2049;SDS011;8478;49.208;8.806;2023-05-08T04:08:03;7.27;;;6.87;;
2049;SDS011;8478;49.208;8.806;2023-05-08T04:10:41;7.10;;;6.70;;
2049;SDS011;8478;49.208;8.806;2023-05-08T04:13:12;6.33;;;5.93;;
2049;SDS011;8478;49.208;8.806;2023-05-08T04:15:43;7.23;;;6.67;;
2049;SDS011;8478;49.208;8.806;2023-05-08T04:18:16;6.60;;;6.23;;
2049;SDS011;8478;49.208;8.806;2023-05-08T04:20:46;6.70;;;6.30;;
2049;SDS011;8478;49.208;8.806;2023-05-08T04:23:17;6.90;;;6.50;;
2049;SDS011;8478;49.208;8.806;2023-05-08T04:25:45;7.23;;;6.83;;
2049;SDS011;8478;49.208;8.806;2023-05-08T04:28:12;6.60;;;6.20;;
2049;SDS011;8478;49.208;8.806;2023-05-08T04:30:39;7.20;;;6.80;;
2049;SDS011;8478;49.208;8.806;2023-05-08T04:33:05;7.80;;;7.30;;
2049;SDS011;8478;49.208;8.806;2023-05-08T04:35:32;6.87;;;6.37;;
2049;SDS011;8478;49.208;8.806;2023-05-08T04:37:58;7.00;;;6.60;;
2049;SDS011;8478;49.208;8.806;2023-05-08T04:40:24;6.77;;;6.33;;
2049;SDS011;8478;49.208;8.806;2023-05-08T04:42:49;6.87;;;6.37;;
2049;SDS011;8478;49.208;8.806;2023-05-08T04:45:15;7.10;;;6.70;;
2049;SDS011;8478;49.208;8.806;2023-05-08T04:47:41;7.27;;;6.87;;
2049;SDS011;8478;49.208;8.806;2023-05-08T04:50:07;7.40;;;6.80;;
2049;SDS011;8478;49.208;8.806;2023-05-08T04:52:34;7.00;;;6.30;;
2049;SDS011;8478;49.208;8.806;2023-05-08T04:54:59;6.73;;;6.40;;
2049;SDS011;8478;49.208;8.806;2023-05-08T04:57:25;6.73;;;6.40;;
2049;SDS011;8478;49.208;8.806;2023-05-08T04:59:51;7.63;;;7.23;;
2049;SDS011;8478;49.208;8.806;2023-05-08T05:02:16;7.10;;;6.70;;
2049;SDS011;8478;49.208;8.806;2023-05-08T05:04:42;7.70;;;7.20;;
2049;SDS011;8478;49.208;8.806;2023-05-08T05:07:08;7.20;;;6.70;;
2049;SDS011;8478;49.208;8.806;2023-05-08T05:09:33;7.50;;;7.07;;
2049;SDS011;8478;49.208;8.806;2023-05-08T05:12:01;7.13;;;6.73;;
2049;SDS011;8478;49.208;8.806;2023-05-08T05:14:28;7.37;;;6.97;;
2049;SDS011;8478;49.208;8.806;2023-05-08T05:16:54;6.93;;;6.53;;
2049;SDS011;8478;49.208;8.806;2023-05-08T05:19:19;6.90;;;6.57;;
2049;SDS011;8478;49.208;8.806;2023-05-08T05:21:45;7.07;;;6.57;;
2049;SDS011;8478;49.208;8.806;2023-05-08T05:24:11;7.53;;;7.00;;
2049;SDS011;8478;49.208;8.806;2023-05-08T05:26:37;7.70;;;7.20;;
2049;SDS011;8478;49.208;8.806;2023-05-08T05:29:02;7.57;;;7.17;;
2049;SDS011;8478;49.208;8.806;2023-05-08T05:31:28;7.50;;;7.10;;
2049;SDS011;8478;49.208;8.806;2023-05-08T05:33:54;7.10;;;6.70;;
2049;SDS011;8478;49.208;8.806;2023-05-08T05:36:20;6.93;;;6.53;;
2049;SDS011;8478;49.208;8.806;2023-05-08T05:38:46;8.10;;;7.50;;
2049;SDS011;8478;49.208;8.806;2023-05-08T05:41:12;7.30;;;6.80;;
2049;SDS011;8478;49.208;8.806;2023-05-08T05:43:38;6.93;;;6.53;;
2049;SDS011;8478;49.208;8.806;2023-05-08T05:46:04;7.10;;;6.70;;
2049;SDS011;8478;49.208;8.806;2023-05-08T05:48:30;7.63;;;7.17;;
2049;SDS011;8478;49.208;8.806;2023-05-08T05:50:56;7.17;;;6.67;;
2049;SDS011;8478;49.208;8.806;2023-05-08T05:53:22;8.10;;;7.43;;
2049;SDS011;8478;49.208;8.806;2023-05-08T05:55:48;8.20;;;7.60;;
2049;SDS011;8478;49.208;8.806;2023-05-08T05:58:13;7.30;;;6.90;;
2049;SDS011;8478;49.208;8.806;2023-05-08T06:00:40;7.40;;;6.90;;
2049;SDS011;8478;49.208;8.806;2023-05-08T06:03:07;7.87;;;7.37;;
2049;SDS011;8478;49.208;8.806;2023-05-08T06:05:35;7.13;;;6.63;;
2049;SDS011;8478;49.208;8.806;2023-05-08T06:08:01;7.87;;;7.47;;
2049;SDS011;8478;49.208;8.806;2023-05-08T06:10:27;7.73;;;7.23;;
2049;SDS011;8478;49.208;8.806;2023-05-08T06:12:53;7.97;;;7.47;;
2049;SDS011;8478;49.208;8.806;2023-05-08T06:15:19;8.80;;;8.30;;
2049;SDS011;8478;49.208;8.806;2023-05-08T06:17:45;8.27;;;7.77;;
2049;SDS011;8478;49.208;8.806;2023-05-08T06:20:11;7.60;;;7.17;;
2049;SDS011;8478;49.208;8.806;2023-05-08T06:22:37;8.23;;;7.77;;
2049;SDS011;8478;49.208;8.806;2023-05-08T06:25:04;8.13;;;7.63;;
2049;SDS011;8478;49.208;8.806;2023-05-08T06:27:31;8.10;;;7.70;;
2049;SDS011;8478;49.208;8.806;2023-05-08T06:29:57;7.70;;;7.10;;
2049;SDS011;8478;49.208;8.806;2023-05-08T06:32:23;9.00;;;8.40;;
2049;SDS011;8478;49.208;8.806;2023-05-08T06:34:49;7.13;;;6.73;;
2049;SDS011;8478;49.208;8.806;2023-05-08T06:37:15;8.70;;;8.20;;
2049;SDS011;8478;49.208;8.806;2023-05-08T06:39:40;7.80;;;7.33;;
2049;SDS011;8478;49.208;8.806;2023-05-08T06:42:06;8.50;;;7.90;;
2049;SDS011;8478;49.208;8.806;2023-05-08T06:44:32;8.40;;;7.90;;
2049;SDS011;8478;49.208;8.806;2023-05-08T06:46:58;8.50;;;8.00;;
2049;SDS011;8478;49.208;8.806;2023-05-08T06:49:24;8.33;;;7.73;;
2049;SDS011;8478;49.208;8.806;2023-05-08T06:51:50;8.33;;;7.83;;
2049;SDS011;8478;49.208;8.806;2023-05-08T06:54:15;9.20;;;8.50;;
2049;SDS011;8478;49.208;8.806;2023-05-08T06:56:41;7.77;;;7.37;;
2049;SDS011;8478;49.208;8.806;2023-05-08T06:59:07;8.17;;;7.67;;
2049;SDS011;8478;49.208;8.806;2023-05-08T07:01:32;9.57;;;9.00;;
2049;SDS011;8478;49.208;8.806;2023-05-08T07:03:58;9.30;;;8.60;;
2049;SDS011;8478;49.208;8.806;2023-05-08T07:06:25;9.00;;;8.37;;
2049;SDS011;8478;49.208;8.806;2023-05-08T07:08:51;8.77;;;8.17;;
2049;SDS011;8478;49.208;8.806;2023-05-08T07:11:17;9.20;;;8.60;;
2049;SDS011;8478;49.208;8.806;2023-05-08T07:13:43;9.13;;;8.57;;
2049;SDS011;8478;49.208;8.806;2023-05-08T07:16:10;8.20;;;7.70;;
2049;SDS011;8478;49.208;8.806;2023-05-08T07:18:36;9.90;;;9.17;;
2049;SDS011;8478;49.208;8.806;2023-05-08T07:21:01;9.10;;;8.60;;
2049;SDS011;8478;49.208;8.806;2023-05-08T07:23:27;9.57;;;8.97;;
2049;SDS011;8478;49.208;8.806;2023-05-08T07:25:53;9.30;;;8.70;;
2049;SDS011;8478;49.208;8.806;2023-05-08T07:28:19;10.03;;;9.33;;
2049;SDS011;8478;49.208;8.806;2023-05-08T07:30:45;10.07;;;9.27;;
2049;SDS011;8478;49.208;8.806;2023-05-08T07:33:11;9.43;;;8.83;;
2049;SDS011;8478;49.208;8.806;2023-05-08T07:35:39;9.23;;;8.53;;
2049;SDS011;8478;49.208;8.806;2023-05-08T07:38:05;10.07;;;9.47;;
2049;SDS011;8478;49.208;8.806;2023-05-08T07:40:31;8.87;;;8.27;;
2049;SDS011;8478;49.208;8.806;2023-05-08T07:42:57;9.67;;;9.07;;
2049;SDS011;8478;49.208;8.806;2023-05-08T07:45:23;9.47;;;8.87;;
2049;SDS011;8478;49.208;8.806;2023-05-08T07:47:52;9.40;;;8.90;;
2049;SDS011;8478;49.208;8.806;2023-05-08T07:50:20;9.93;;;9.23;;
2049;SDS011;8478;49.208;8.806;2023-05-08T07:52:46;10.53;;;9.83;;
2049;SDS011;8478;49.208;8.806;2023-05-08T07:55:12;10.30;;;9.50;;
2049;SDS011;8478;49.208;8.806;2023-05-08T07:57:39;10.27;;;9.57;;
2049;SDS011;8478;49.208;8.806;2023-05-08T08:00:06;10.07;;;9.33;;
2049;SDS011;8478;49.208;8.806;2023-05-08T08:02:33;9.80;;;9.20;;
2049;SDS011;8478;49.208;8.806;2023-05-08T08:04:59;10.93;;;10.17;;
2049;SDS011;8478;49.208;8.806;2023-05-08T08:07:25;10.97;;;10.17;;
2049;SDS011;8478;49.208;8.806;2023-05-08T08:09:51;11.03;;;10.23;;
2049;SDS011;8478;49.208;8.806;2023-05-08T08:12:17;10.73;;;9.97;;
2049;SDS011;8478;49.208;8.806;2023-05-08T08:14:42;11.40;;;10.70;;
2049;SDS011;8478;49.208;8.806;2023-05-08T08:17:08;11.00;;;10.27;;
2049;SDS011;8478;49.208;8.806;2023-05-08T08:19:34;11.13;;;10.43;;
2049;SDS011;8478;49.208;8.806;2023-05-08T08:21:59;10.60;;;9.90;;
2049;SDS011;8478;49.208;8.806;2023-05-08T08:24:25;10.93;;;10.20;;
2049;SDS011;8478;49.208;8.806;2023-05-08T08:26:53;11.57;;;10.83;;
2049;SDS011;8478;49.208;8.806;2023-05-08T08:29:19;10.80;;;10.10;;
2049;SDS011;8478;49.208;8.806;2023-05-08T08:31:44;10.57;;;9.87;;
2049;SDS011;8478;49.208;8.806;2023-05-08T08:34:10;10.63;;;9.93;;
2049;SDS011;8478;49.208;8.806;2023-05-08T08:36:37;10.70;;;10.10;;
2049;SDS011;8478;49.208;8.806;2023-05-08T08:39:03;10.60;;;9.80;;
2049;SDS011;8478;49.208;8.806;2023-05-08T08:41:29;10.73;;;10.03;;
2049;SDS011;8478;49.208;8.806;2023-05-08T08:43:55;11.43;;;10.63;;
2049;SDS011;8478;49.208;8.806;2023-05-08T08:46:25;11.90;;;11.10;;
2049;SDS011;8478;49.208;8.806;2023-05-08T08:48:52;11.70;;;10.90;;
2049;SDS011;8478;49.208;8.806;2023-05-08T08:51:34;11.80;;;10.93;;
2049;SDS011;8478;49.208;8.806;2023-05-08T08:56:36;10.87;;;10.17;;
2049;SDS011;8478;49.208;8.806;2023-05-08T08:59:04;11.10;;;10.40;;
2049;SDS011;8478;49.208;8.806;2023-05-08T09:01:33;11.53;;;10.83;;
2049;SDS011;8478;49.208;8.806;2023-05-08T09:04:00;12.53;;;11.70;;
2049;SDS011;8478;49.208;8.806;2023-05-08T09:06:27;12.63;;;11.73;;
2049;SDS011;8478;49.208;8.806;2023-05-08T09:08:56;12.57;;;11.57;;
2049;SDS011;8478;49.208;8.806;2023-05-08T09:11:26;11.20;;;10.50;;
2049;SDS011;8478;49.208;8.806;2023-05-08T09:13:55;11.20;;;10.50;;
2049;SDS011;8478;49.208;8.806;2023-05-08T09:16:22;11.80;;;11.10;;
2049;SDS011;8478;49.208;8.806;2023-05-08T09:18:48;13.17;;;12.17;;
2049;SDS011;8478;49.208;8.806;2023-05-08T09:21:14;12.70;;;11.90;;
2049;SDS011;8478;49.208;8.806;2023-05-08T09:23:56;13.63;;;12.67;;
2049;SDS011;8478;49.208;8.806;2023-05-08T09:26:26;12.03;;;11.13;;
2049;SDS011;8478;49.208;8.806;2023-05-08T09:29:12;12.37;;;11.63;;
2049;SDS011;8478;49.208;8.806;2023-05-08T09:31:42;13.50;;;12.50;;
2049;SDS011;8478;49.208;8.806;2023-05-08T09:34:11;14.13;;;13.17;;
2049;SDS011;8478;49.208;8.806;2023-05-08T09:36:52;12.70;;;11.90;;
2049;SDS011;8478;49.208;8.806;2023-05-08T09:39:22;12.87;;;11.97;;
2049;SDS011;8478;49.208;8.806;2023-05-08T09:41:55;13.83;;;12.93;;
2049;SDS011;8478;49.208;8.806;2023-05-08T09:44:24;13.90;;;13.03;;
2049;SDS011;8478;49.208;8.806;2023-05-08T09:46:50;14.43;;;13.43;;
2049;SDS011;8478;49.208;8.806;2023-05-08T09:49:17;13.77;;;12.77;;
2049;SDS011;8478;49.208;8.806;2023-05-08T09:51:52;13.67;;;12.77;;
2049;SDS011;8478;49.208;8.806;2023-05-08T09:54:18;13.13;;;12.33;;
2049;SDS011;8478;49.208;8.806;2023-05-08T09:56:44;13.70;;;12.80;;
2049;SDS011;8478;49.208;8.806;2023-05-08T09:59:28;13.10;;;12.30;;
2049;SDS011;8478;49.208;8.806;2023-05-08T10:01:55;12.50;;;11.60;;
2049;SDS011;8478;49.208;8.806;2023-05-08T10:04:30;13.00;;;12.10;;
2049;SDS011;8478;49.208;8.806;2023-05-08T10:07:00;12.77;;;11.93;;
2049;SDS011;8478;49.208;8.806;2023-05-08T10:09:26;13.63;;;12.73;;
2049;SDS011;8478;49.208;8.806;2023-05-08T10:11:52;12.00;;;11.20;;
2049;SDS011;8478;49.208;8.806;2023-05-08T10:14:20;12.30;;;11.50;;
2049;SDS011;8478;49.208;8.806;2023-05-08T10:16:48;13.60;;;12.63;;
2049;SDS011;8478;49.208;8.806;2023-05-08T10:19:18;12.53;;;11.67;;
2049;SDS011;8478;49.208;8.806;2023-05-08T10:21:51;12.70;;;11.80;;
2049;SDS011;8478;49.208;8.806;2023-05-08T10:24:33;13.20;;;12.30;;
2049;SDS011;8478;49.208;8.806;2023-05-08T10:29:42;13.60;;;12.57;;
2049;SDS011;8478;49.208;8.806;2023-05-08T10:32:18;12.70;;;11.60;;
2049;SDS011;8478;49.208;8.806;2023-05-08T10:34:45;14.47;;;13.47;;
2049;SDS011;8478;49.208;8.806;2023-05-08T10:37:16;12.70;;;11.90;;
2049;SDS011;8478;49.208;8.806;2023-05-08T10:39:41;14.27;;;13.07;;
2049;SDS011;8478;49.208;8.806;2023-05-08T10:42:09;13.70;;;12.80;;
2049;SDS011;8478;49.208;8.806;2023-05-08T10:44:37;14.40;;;13.13;;
2049;SDS011;8478;49.208;8.806;2023-05-08T10:49:59;13.33;;;12.33;;
2049;SDS011;8478;49.208;8.806;2023-05-08T10:52:42;13.10;;;12.10;;
2049;SDS011;8478;49.208;8.806;2023-05-08T10:55:27;13.57;;;12.67;;
2049;SDS011;8478;49.208;8.806;2023-05-08T10:58:01;12.27;;;11.27;;
2049;SDS011;8478;49.208;8.806;2023-05-08T11:01:18;12.50;;;11.70;;
2049;SDS011;8478;49.208;8.806;2023-05-08T11:03:27;12.53;;;11.67;;
2049;SDS011;8478;49.208;8.806;2023-05-08T11:05:55;13.60;;;12.63;;
2049;SDS011;8478;49.208;8.806;2023-05-08T11:08:22;12.60;;;11.80;;
2049;SDS011;8478;49.208;8.806;2023-05-08T11:11:00;13.10;;;12.20;;
2049;SDS011;8478;49.208;8.806;2023-05-08T11:13:33;12.67;;;11.77;;
2049;SDS011;8478;49.208;8.806;2023-05-08T11:16:03;12.13;;;11.23;;
2049;SDS011;8478;49.208;8.806;2023-05-08T11:18:34;12.97;;;12.10;;
2049;SDS011;8478;49.208;8.806;2023-05-08T11:21:01;13.30;;;12.40;;
2049;SDS011;8478;49.208;8.806;2023-05-08T11:23:29;12.37;;;11.57;;
2049;SDS011;8478;49.208;8.806;2023-05-08T11:28:37;14.00;;;13.00;;
2049;SDS011;8478;49.208;8.806;2023-05-08T11:31:05;13.87;;;12.90;;
2049;SDS011;8478;49.208;8.806;2023-05-08T11:33:33;12.93;;;11.73;;
2049;SDS011;8478;49.208;8.806;2023-05-08T11:36:20;12.77;;;11.67;;
2049;SDS011;8478;49.208;8.806;2023-05-08T11:39:04;14.60;;;13.50;;
2049;SDS011;8478;49.208;8.806;2023-05-08T11:41:36;13.13;;;12.23;;
2049;SDS011;8478;49.208;8.806;2023-05-08T11:46:39;14.43;;;13.50;;
2049;SDS011;8478;49.208;8.806;2023-05-08T11:49:14;12.27;;;11.47;;
2049;SDS011;8478;49.208;8.806;2023-05-08T11:51:41;13.37;;;12.47;;
2049;SDS011;8478;49.208;8.806;2023-05-08T11:54:14;14.57;;;13.57;;
2049;SDS011;8478;49.208;8.806;2023-05-08T11:56:42;12.47;;;11.57;;
2049;SDS011;8478;49.208;8.806;2023-05-08T11:59:09;13.57;;;12.67;;
2049;SDS011;8478;49.208;8.806;2023-05-08T12:01:35;12.40;;;11.60;;
2049;SDS011;8478;49.208;8.806;2023-05-08T12:04:04;14.90;;;13.90;;
2049;SDS011;8478;49.208;8.806;2023-05-08T12:06:32;13.70;;;12.80;;
2049;SDS011;8478;49.208;8.806;2023-05-08T12:09:01;12.73;;;11.90;;
2049;SDS011;8478;49.208;8.806;2023-05-08T12:11:29;12.60;;;11.80;;
2049;SDS011;8478;49.208;8.806;2023-05-08T12:13:55;13.10;;;12.20;;
2049;SDS011;8478;49.208;8.806;2023-05-08T12:16:22;12.83;;;11.83;;
2049;SDS011;8478;49.208;8.806;2023-05-08T12:18:49;13.40;;;12.50;;
2049;SDS011;8478;49.208;8.806;2023-05-08T12:21:16;13.20;;;12.20;;
2049;SDS011;8478;49.208;8.806;2023-05-08T12:23:41;14.70;;;13.63;;
2049;SDS011;8478;49.208;8.806;2023-05-08T12:26:07;11.73;;;11.03;;
2049;SDS011;8478;49.208;8.806;2023-05-08T12:28:33;12.70;;;12.00;;
2049;SDS011;8478;49.208;8.806;2023-05-08T12:31:02;13.30;;;12.40;;
2049;SDS011;8478;49.208;8.806;2023-05-08T12:33:28;14.00;;;13.10;;
2049;SDS011;8478;49.208;8.806;2023-05-08T12:35:54;15.50;;;14.30;;
2049;SDS011;8478;49.208;8.806;2023-05-08T12:38:24;14.63;;;13.63;;
2049;SDS011;8478;49.208;8.806;2023-05-08T12:40:51;13.60;;;12.70;;
2049;SDS011;8478;49.208;8.806;2023-05-08T12:43:19;12.13;;;11.33;;
2049;SDS011;8478;49.208;8.806;2023-05-08T12:45:45;13.47;;;12.43;;
2049;SDS011;8478;49.208;8.806;2023-05-08T12:48:12;14.20;;;13.10;;
2049;SDS011;8478;49.208;8.806;2023-05-08T12:50:42;14.27;;;13.27;;
2049;SDS011;8478;49.208;8.806;2023-05-08T12:53:09;13.53;;;12.47;;
2049;SDS011;8478;49.208;8.806;2023-05-08T12:55:48;14.07;;;13.17;;
2049;SDS011;8478;49.208;8.806;2023-05-08T12:58:16;13.40;;;12.40;;
2049;SDS011;8478;49.208;8.806;2023-05-08T13:00:43;13.00;;;12.10;;
2049;SDS011;8478;49.208;8.806;2023-05-08T13:03:11;11.70;;;10.90;;
2049;SDS011;8478;49.208;8.806;2023-05-08T13:05:41;14.93;;;13.80;;
2049;SDS011;8478;49.208;8.806;2023-05-08T13:08:09;15.50;;;14.33;;
2049;SDS011;8478;49.208;8.806;2023-05-08T13:13:20;13.10;;;12.30;;
2049;SDS011;8478;49.208;8.806;2023-05-08T13:15:51;13.03;;;12.10;;
2049;SDS011;8478;49.208;8.806;2023-05-08T13:18:18;12.47;;;11.57;;
2049;SDS011;8478;49.208;8.806;2023-05-08T13:20:45;12.43;;;11.50;;
2049;SDS011;8478;49.208;8.806;2023-05-08T13:23:11;13.57;;;12.57;;
2049;SDS011;8478;49.208;8.806;2023-05-08T13:25:37;17.33;;;16.00;;
2049;SDS011;8478;49.208;8.806;2023-05-08T13:28:05;16.27;;;15.07;;
2049;SDS011;8478;49.208;8.806;2023-05-08T13:30:31;15.17;;;14.07;;
2049;SDS011;8478;49.208;8.806;2023-05-08T13:32:57;14.07;;;13.07;;
2049;SDS011;8478;49.208;8.806;2023-05-08T13:35:23;14.07;;;13.17;;
2049;SDS011;8478;49.208;8.806;2023-05-08T13:37:49;13.50;;;12.60;;
2049;SDS011;8478;49.208;8.806;2023-05-08T13:40:16;15.27;;;14.27;;
2049;SDS011;8478;49.208;8.806;2023-05-08T13:42:42;16.07;;;14.97;;
2049;SDS011;8478;49.208;8.806;2023-05-08T13:45:08;15.13;;;14.03;;
2049;SDS011;8478;49.208;8.806;2023-05-08T13:47:38;15.13;;;14.13;;
2049;SDS011;8478;49.208;8.806;2023-05-08T13:50:05;15.33;;;14.27;;
2049;SDS011;8478;49.208;8.806;2023-05-08T13:52:32;16.40;;;15.33;;
2049;SDS011;8478;49.208;8.806;2023-05-08T13:54:58;13.70;;;12.90;;
2049;SDS011;8478;49.208;8.806;2023-05-08T13:57:23;13.57;;;12.70;;
2049;SDS011;8478;49.208;8.806;2023-05-08T13:59:50;15.20;;;14.20;;
2049;SDS011;8478;49.208;8.806;2023-05-08T14:02:16;14.60;;;13.60;;
2049;SDS011;8478;49.208;8.806;2023-05-08T14:04:42;14.10;;;13.10;;
2049;SDS011;8478;49.208;8.806;2023-05-08T14:07:07;14.43;;;13.43;;
2049;SDS011;8478;49.208;8.806;2023-05-08T14:09:33;15.03;;;14.00;;
2049;SDS011;8478;49.208;8.806;2023-05-08T14:11:59;15.33;;;14.30;;
2049;SDS011;8478;49.208;8.806;2023-05-08T14:14:25;17.00;;;15.70;;
2049;SDS011;8478;49.208;8.806;2023-05-08T14:16:51;15.80;;;14.80;;
2049;SDS011;8478;49.208;8.806;2023-05-08T14:19:16;16.27;;;15.10;;
2049;SDS011;8478;49.208;8.806;2023-05-08T14:21:45;15.17;;;14.10;;
2049;SDS011;8478;49.208;8.806;2023-05-08T14:24:11;15.43;;;14.33;;
2049;SDS011;8478;49.208;8.806;2023-05-08T14:26:37;15.37;;;14.17;;
2049;SDS011;8478;49.208;8.806;2023-05-08T14:29:03;16.87;;;15.70;;
2049;SDS011;8478;49.208;8.806;2023-05-08T14:31:29;14.20;;;13.30;;
2049;SDS011;8478;49.208;8.806;2023-05-08T14:33:55;15.13;;;14.13;;
2049;SDS011;8478;49.208;8.806;2023-05-08T14:36:20;16.83;;;15.40;;
2049;SDS011;8478;49.208;8.806;2023-05-08T14:38:46;16.20;;;15.10;;
2049;SDS011;8478;49.208;8.806;2023-05-08T14:41:12;14.97;;;14.07;;
2049;SDS011;8478;49.208;8.806;2023-05-08T14:43:38;15.43;;;14.40;;
2049;SDS011;8478;49.208;8.806;2023-05-08T14:46:04;16.20;;;15.10;;
2049;SDS011;8478;49.208;8.806;2023-05-08T14:48:29;16.57;;;15.47;;
2049;SDS011;8478;49.208;8.806;2023-05-08T14:50:55;16.00;;;14.87;;
2049;SDS011;8478;49.208;8.806;2023-05-08T14:53:21;15.13;;;14.13;;
2049;SDS011;8478;49.208;8.806;2023-05-08T14:55:47;14.90;;;13.77;;
2049;SDS011;8478;49.208;8.806;2023-05-08T14:58:13;15.20;;;14.20;;
2049;SDS011;8478;49.208;8.806;2023-05-08T15:00:39;14.73;;;13.77;;
2049;SDS011;8478;49.208;8.806;2023-05-08T15:03:04;16.03;;;14.90;;
2049;SDS011;8478;49.208;8.806;2023-05-08T15:05:30;16.17;;;14.97;;
2049;SDS011;8478;49.208;8.806;2023-05-08T15:07:56;16.20;;;14.90;;
2049;SDS011;8478;49.208;8.806;2023-05-08T15:10:22;17.63;;;16.43;;
2049;SDS011;8478;49.208;8.806;2023-05-08T15:12:48;15.20;;;14.20;;
2049;SDS011;8478;49.208;8.806;2023-05-08T15:15:14;16.10;;;15.03;;
2049;SDS011;8478;49.208;8.806;2023-05-08T15:17:40;16.10;;;15.00;;
2049;SDS011;8478;49.208;8.806;2023-05-08T15:20:06;16.97;;;15.73;;
2049;SDS011;8478;49.208;8.806;2023-05-08T15:22:33;17.47;;;16.37;;
2049;SDS011;8478;49.208;8.806;2023-05-08T15:24:58;17.10;;;15.97;;
2049;SDS011;8478;49.208;8.806;2023-05-08T15:27:29;17.97;;;16.77;;
2049;SDS011;8478;49.208;8.806;2023-05-08T15:29:55;16.33;;;15.13;;
2049;SDS011;8478;49.208;8.806;2023-05-08T15:32:21;18.17;;;16.87;;
2049;SDS011;8478;49.208;8.806;2023-05-08T15:34:47;16.93;;;15.40;;
2049;SDS011;8478;49.208;8.806;2023-05-08T15:37:12;15.90;;;14.80;;
2049;SDS011;8478;49.208;8.806;2023-05-08T15:39:38;18.03;;;16.73;;
2049;SDS011;8478;49.208;8.806;2023-05-08T15:42:04;17.43;;;16.13;;
2049;SDS011;8478;49.208;8.806;2023-05-08T15:44:30;18.30;;;17.00;;
2049;SDS011;8478;49.208;8.806;2023-05-08T15:46:56;17.33;;;16.23;;